Flight Track Log - Related Links

Times and Time Zones

All times are in EDT time to prevent confusion due to time zone crossing. See the SWA1521 flight status page for this flight to view local times or setup timezone preferences in your user account.

Time Position Orientation Groundspeed Altitude Reporting Facility
EDT Latitude Longitude Course Direction KTS MPH feet Rate Location/Type
Thu 04:45:32 PM 38.2333 -85.7500 338° Northwest 192 221 2,600  Level Louisville TRACON
Thu 04:46:29 PM 38.2675 -85.7672 338° Northwest 204 235 4,800 2,773 Climbing Indianapolis Center
Thu 04:47:31 PM 38.2750 -85.8731 275° West 251 289 8,100 2,928 Climbing Indianapolis Center
Thu 04:48:34 PM 38.2208 -85.9483 228° Southwest 292 336 10,900 2,304 Climbing Indianapolis Center
Thu 04:49:36 PM 38.1461 -86.0333 222° Southwest 355 409 12,900 2,226 Climbing Indianapolis Center
Thu 04:50:38 PM 38.0783 -86.1336 229° Southwest 375 432 15,500 2,565 Climbing Indianapolis Center
Thu 04:51:40 PM 38.0892 -86.2614 276° West 366 421 18,200 2,226 Climbing Indianapolis Center
Thu 04:52:42 PM 38.1050 -86.3919 279° West 369 425 20,100 2,032 Climbing Indianapolis Center
Thu 04:53:44 PM 38.1228 -86.5308 279° West 392 451 22,400 2,419 Climbing Indianapolis Center
Thu 04:54:46 PM 38.1436 -86.6967 279° West 396 456 25,100 2,177 Climbing Indianapolis Center
Thu 04:55:48 PM 38.1611 -86.8383 279° West 399 459 26,900 1,694 Climbing Indianapolis Center
Thu 04:56:50 PM 38.1786 -86.9844 279° West 409 471 28,600 1,790 Climbing Indianapolis Center
Thu 04:57:52 PM 38.2008 -87.1300 281° West 405 466 30,600 1,887 Climbing Indianapolis Center
Thu 04:58:54 PM 38.2314 -87.2678 286° West 395 455 32,500 1,790 Climbing Indianapolis Center
Thu 04:59:56 PM 38.2592 -87.4006 285° West 388 447 34,300 1,500 Climbing Indianapolis Center
Thu 05:00:58 PM 38.2861 -87.5303 285° West 378 435 35,600 823 Climbing Indianapolis Center
Thu 05:02:00 PM 38.3139 -87.6606 285° West 379 436 36,000 194 Climbing Indianapolis Center
Thu 05:03:02 PM 38.3408 -87.7931 285° West 383 441 36,000  Level Indianapolis Center
Thu 05:04:04 PM 38.3681 -87.9228 285° West 380 437 36,000  Level Indianapolis Center
Thu 05:05:06 PM 38.3994 -88.0803 284° West 380 437 36,000  Level Indianapolis Center
Thu 05:06:08 PM 38.4267 -88.2106 285° West 379 436 36,000  Level Indianapolis Center
Thu 05:07:10 PM 38.4531 -88.3419 284° West 377 434 36,000  Level Kansas City Center
Thu 05:08:10 PM 38.4792 -88.4722 284° West 378 435 36,000 50 Level Kansas City Center
Thu 05:09:11 PM 38.4944 -88.6083 278° West 382 440 36,100 624 Climbing Kansas City Center
Thu 05:10:15 PM 38.4969 -88.7519 271° West 387 445 37,300 912 Climbing Kansas City Center
Thu 05:11:16 PM 38.5044 -88.8981 274° West 385 443 38,000 336 Climbing Kansas City Center
Thu 05:12:20 PM 38.5108 -89.0317 274° West 379 436 38,000  Level Kansas City Center
Thu 05:13:21 PM 38.5181 -89.1747 274° West 377 434 38,000  Level Kansas City Center
Thu 05:14:22 PM 38.5244 -89.3075 274° West 377 434 38,000  Level Kansas City Center
Thu 05:15:25 PM 38.5308 -89.4408 274° West 377 434 38,000  Level Kansas City Center
Thu 05:16:26 PM 38.5378 -89.5831 274° West 374 430 38,000  Level Kansas City Center
Thu 05:17:30 PM 38.5442 -89.7117 274° West 375 432 38,000  Level Kansas City Center
Thu 05:18:30 PM 38.5497 -89.8458 273° West 378 435 38,000  Level Kansas City Center
Thu 05:19:34 PM 38.5544 -89.9794 273° West 377 434 38,000  Level Kansas City Center
Thu 05:20:34 PM 38.5603 -90.1147 273° West 379 436 38,000  Level Kansas City Center
Thu 05:21:38 PM 38.5633 -90.2489 272° West 377 434 38,000  Level Kansas City Center
Thu 05:22:38 PM 38.5700 -90.4100 273° West 383 441 38,000  Level Kansas City Center
Thu 05:23:42 PM 38.5814 -90.5461 276° West 392 451 38,000  Level Kansas City Center
Thu 05:24:43 PM 38.5817 -90.6908 270° West 382 440 38,000  Level Kansas City Center
Thu 05:25:47 PM 38.5867 -90.8272 273° West 383 441 38,000  Level Kansas City Center
Thu 05:26:47 PM 38.5914 -90.9644 273° West 385 443 38,000  Level Kansas City Center
Thu 05:27:48 PM 38.5967 -91.1006 273° West 384 442 38,000  Level Kansas City Center
Thu 05:28:51 PM 38.6014 -91.2367 273° West 385 443 38,000  Level Kansas City Center
Thu 05:29:52 PM 38.6067 -91.3883 273° West 383 441 38,000  Level Kansas City Center
Thu 05:30:56 PM 38.6111 -91.5267 272° West 387 445 38,000  Level Kansas City Center
Thu 05:31:56 PM 38.6139 -91.6622 272° West 385 443 38,000  Level Kansas City Center
Thu 05:33:00 PM 38.6183 -91.7994 272° West 386 444 38,000  Level Kansas City Center
Thu 05:34:01 PM 38.6225 -91.9650 272° West 388 447 38,000  Level Kansas City Center
Thu 05:35:04 PM 38.6242 -92.1019 271° West 388 447 38,000  Level Kansas City Center
Thu 05:36:04 PM 38.6286 -92.2394 272° West 388 447 38,000  Level Kansas City Center
Thu 05:37:06 PM 38.6311 -92.3758 271° West 387 445 38,000  Level Kansas City Center
Thu 05:38:10 PM 38.6328 -92.5097 271° West 382 440 38,000  Level Kansas City Center
Thu 05:39:11 PM 38.6358 -92.6733 271° West 383 441 38,000  Level Kansas City Center
Thu 05:40:13 PM 38.6389 -92.8097 272° West 385 443 38,000  Level Kansas City Center
Thu 05:42:17 PM 38.6433 -93.0814 271° West 384 442 38,000  Level Kansas City Center
Thu 05:43:20 PM 38.6442 -93.2164 270° West 381 438 38,000  Level Kansas City Center
Thu 05:44:21 PM 38.6469 -93.3536 272° West 384 442 38,000  Level Kansas City Center
Thu 05:45:24 PM 38.6486 -93.5169 271° West 384 442 38,000  Level Kansas City Center
Thu 05:47:27 PM 38.6525 -93.7836 271° West 384 442 38,000  Level Kansas City Center
Thu 05:48:29 PM 38.6525 -93.9342 270° West 380 437 38,000  Level Kansas City Center
Thu 05:49:33 PM 38.6539 -94.0617 271° West 377 434 38,000  Level Kansas City Center
Thu 05:50:33 PM 38.6536 -94.2139 270° West 379 436 38,000  Level Kansas City Center
Thu 05:51:38 PM 38.6553 -94.3422 271° West 379 436 38,000  Level Kansas City Center
Thu 05:52:38 PM 38.6553 -94.4728 270° West 381 438 38,000  Level Kansas City Center
Thu 05:53:41 PM 38.6558 -94.6250 270° West 383 441 38,000  Level Kansas City Center
Thu 05:54:43 PM 38.6564 -94.7558 270° West 383 441 38,000  Level Kansas City Center
Thu 05:55:43 PM 38.6558 -94.9081 270° West 382 440 38,000  Level Kansas City Center
Thu 05:56:48 PM 38.6561 -95.0400 270° West 384 442 38,000  Level Kansas City Center
Thu 05:57:50 PM 38.6556 -95.1939 270° West 385 443 38,000  Level Kansas City Center
Thu 05:59:00 PM 38.6545 -95.3518 270° West  Level FlightAware Approximate
Thu 05:59:51 PM 38.6542 -95.4806 270° West 389 448 38,000  Level Kansas City Center
Thu 06:00:56 PM 38.6539 -95.6128 270° West 388 447 38,000  Level Kansas City Center
Thu 06:01:57 PM 38.6522 -95.7444 269° West 386 444 38,000  Level Kansas City Center
Thu 06:03:00 PM 38.6517 -95.8961 270° West 382 440 38,000  Level Kansas City Center
Thu 06:04:00 PM 38.6506 -96.0258 269° West 381 438 38,000  Level Kansas City Center
Thu 06:05:02 PM 38.6489 -96.1761 269° West 380 437 38,000  Level Kansas City Center
Thu 06:06:06 PM 38.6469 -96.3050 269° West 379 436 38,000  Level Kansas City Center
Thu 06:07:05 PM 38.6450 -96.4569 269° West 382 440 38,000  Level Kansas City Center
Thu 06:08:09 PM 38.6442 -96.5869 270° West 382 440 38,000  Level Kansas City Center
Thu 06:09:10 PM 38.6408 -96.7389 268° West 383 441 38,000  Level Kansas City Center
Thu 06:10:13 PM 38.6392 -96.8725 269° West 386 444 38,000  Level Kansas City Center
Thu 06:11:16 PM 38.6369 -97.0092 269° West 387 445 38,000  Level Kansas City Center
Thu 06:12:16 PM 38.6347 -97.1461 269° West 386 444 38,000  Level Kansas City Center
Thu 06:13:18 PM 38.6319 -97.2828 269° West 386 444 38,000  Level Kansas City Center
Thu 06:14:22 PM 38.6289 -97.4458 269° West 384 442 38,000  Level Kansas City Center
Thu 06:15:22 PM 38.6256 -97.5806 268° West 381 438 38,000  Level Kansas City Center
Thu 06:16:23 PM 38.6231 -97.7153 269° West 381 438 38,000  Level Kansas City Center
Thu 06:17:26 PM 38.6189 -97.8511 268° West 383 441 38,000  Level Kansas City Center
Thu 06:18:30 PM 38.6161 -97.9892 269° West 381 438 38,000  Level Kansas City Center
Thu 06:19:30 PM 38.6125 -98.1192 268° West 379 436 38,000  Level Kansas City Center
Thu 06:20:33 PM 38.6081 -98.2781 268° West 375 432 38,000  Level Kansas City Center
Thu 06:21:34 PM 38.6047 -98.4114 268° West 376 433 38,000  Level Kansas City Center
Thu 06:22:38 PM 38.6008 -98.5458 268° West 380 437 38,000  Level Kansas City Center
Thu 06:23:39 PM 38.5964 -98.6800 268° West 379 436 38,000  Level Kansas City Center
Thu 06:24:42 PM 38.5917 -98.8144 267° West 379 436 38,000  Level Kansas City Center
Thu 06:25:43 PM 38.5856 -98.9792 267° West 387 445 38,000  Level Kansas City Center
Thu 06:26:56 PM 38.5794 -99.1428 267° West 386 444 38,000  Level Kansas City Center
Thu 06:28:00 PM 38.5756 -99.2794 268° West 387 445 38,000  Level Kansas City Center
Thu 06:29:02 PM 38.5697 -99.4175 267° West 388 447 38,000  Level Kansas City Center
Thu 06:30:05 PM 38.5647 -99.5589 267° West 390 449 38,000  Level Kansas City Center
Thu 06:31:06 PM 38.5578 -99.7131 267° West 390 449 38,000  Level Kansas City Center
Thu 06:32:09 PM 38.5522 -99.8453 267° West 390 449 38,000  Level Kansas City Center
Thu 06:33:09 PM 38.5456 -100.0000 267° West 391 450 38,000  Level Kansas City Center
Thu 06:34:13 PM 38.5389 -100.1311 266° West 389 448 38,000  Level Kansas City Center
Thu 06:35:14 PM 38.5328 -100.2853 267° West 391 450 38,000  Level Kansas City Center
Thu 06:36:15 PM 38.5264 -100.4172 266° West 390 449 38,000  Level Kansas City Center
Thu 06:37:18 PM 38.5186 -100.5700 266° West 389 448 38,000  Level Kansas City Center
Thu 06:38:21 PM 38.5111 -100.7022 266° West 390 449 38,000  Level Kansas City Center
Thu 06:39:22 PM 38.5042 -100.8556 267° West 390 449 38,000  Level Kansas City Center
Thu 06:40:26 PM 38.4967 -100.9881 266° West 391 450 38,000  Level Kansas City Center
Thu 06:41:26 PM 38.4886 -101.1411 266° West 390 449 38,000  Level Kansas City Center
Thu 06:42:29 PM 38.4814 -101.2744 266° West 393 452 38,000  Level Kansas City Center
Thu 06:43:31 PM 38.4725 -101.4278 266° West 391 450 38,000  Level Kansas City Center
Thu 06:44:31 PM 38.4647 -101.5617 266° West 394 453 38,000  Level Kansas City Center
Thu 06:45:35 PM 38.4556 -101.7161 266° West 393 452 38,000  Level Kansas City Center
Thu 06:46:36 PM 38.4469 -101.8469 265° West 391 450 38,000  Level Kansas City Center
Thu 06:47:52 PM 38.4381 -102.0183 266° West 385 443 38,000  Level Denver Center
Thu 06:48:54 PM 38.4278 -102.1714 265° West 388 447 38,000  Level Denver Center
Thu 06:49:57 PM 38.4211 -102.3022 266° West 388 447 38,000  Level Denver Center
Thu 06:50:59 PM 38.4100 -102.4556 265° West 390 449 38,000  Level Denver Center
Thu 06:52:01 PM 38.4022 -102.5881 266° West 392 451 38,000  Level Denver Center
Thu 06:53:03 PM 38.3911 -102.7447 265° West 398 458 38,000  Level Denver Center
Thu 06:54:05 PM 38.3819 -102.8778 265° West 395 455 38,000  Level Denver Center
Thu 06:55:07 PM 38.3719 -103.0344 265° West 399 459 38,000  Level Denver Center
Thu 06:56:09 PM 38.3625 -103.1694 265° West 401 461 38,000  Level Denver Center
Thu 06:57:11 PM 38.3514 -103.3267 265° West 400 460 38,000  Level Denver Center
Thu 06:58:13 PM 38.3403 -103.4631 264° West 399 459 38,000  Level Denver Center
Thu 06:59:15 PM 38.3297 -103.6211 265° West 403 464 38,000  Level Denver Center
Thu 07:00:17 PM 38.3189 -103.7567 264° West 403 464 38,000  Level Denver Center
Thu 07:01:19 PM 38.3094 -103.8908 265° West 401 461 38,000  Level Denver Center
Thu 07:02:21 PM 38.2969 -104.0475 264° West 399 459 38,000  Level Denver Center
Thu 07:03:35 PM 38.2861 -104.1844 264° West 405 466 38,000  Level Denver Center
Thu 07:04:37 PM 38.2708 -104.3639 264° West 403 464 38,000  Level Denver Center
Thu 07:05:39 PM 38.2583 -104.5208 264° West 401 461 38,000  Level Denver Center
Thu 07:06:41 PM 38.2486 -104.6325 264° West 401 461 38,000  Level Denver Center
Thu 07:07:43 PM 38.2342 -104.8089 264° West 396 456 38,000  Level Denver Center
Thu 07:08:46 PM 38.2231 -104.9433 264° West 399 459 38,000  Level Denver Center
Thu 07:09:47 PM 38.2094 -105.1014 264° West 402 463 38,000  Level Denver Center
Thu 07:10:49 PM 38.1972 -105.2350 263° West 399 459 38,000  Level Denver Center
Thu 07:11:51 PM 38.1867 -105.3464 263° West 399 459 38,000  Level Denver Center
Thu 07:12:53 PM 38.1708 -105.5214 263° West 393 452 38,000  Level Denver Center
Thu 07:13:55 PM 38.1564 -105.6789 263° West 401 461 38,000  Level Denver Center
Thu 07:14:57 PM 38.1442 -105.8108 263° West 396 456 38,000  Level Denver Center
Thu 07:15:59 PM 38.1317 -105.9442 263° West 396 456 38,000  Level Denver Center
Thu 07:17:01 PM 38.1172 -106.0992 263° West 397 457 38,000  Level Denver Center
Thu 07:18:03 PM 38.1036 -106.2328 263° West 403 464 38,000  Level Denver Center
Thu 07:19:05 PM 38.0892 -106.3764 263° West 407 468 38,000  Level Denver Center
Thu 07:20:07 PM 38.0753 -106.5281 263° West 405 466 38,000  Level Denver Center
Thu 07:21:10 PM 38.0586 -106.6869 262° West 406 467 38,000  Level Denver Center
Thu 07:22:12 PM 38.0447 -106.8225 263° West 406 467 38,000  Level Denver Center
Thu 07:23:14 PM 38.0292 -106.9761 263° West 397 457 38,000  Level Denver Center
Thu 07:24:16 PM 38.0139 -107.1128 262° West 402 463 38,000  Level Denver Center
Thu 07:25:18 PM 38.0258 -107.2719 275° West 416 479 38,000  Level Denver Center
Thu 07:26:20 PM 38.0406 -107.4086 278° West 412 474 38,000  Level Denver Center
Thu 07:27:22 PM 38.0575 -107.5650 278° West 406 467 38,000  Level Denver Center
Thu 07:28:24 PM 38.0719 -107.7008 278° West 407 468 38,000  Level Denver Center
Thu 07:29:26 PM 38.0683 -107.8128 268° West 403 464 38,000  Level Denver Center
Thu 07:30:28 PM 38.0289 -107.9800 253° West 392 451 38,000  Level Denver Center
Thu 07:31:42 PM 37.9947 -108.1325 254° West 399 459 38,000  Level Denver Center
Thu 07:32:45 PM 37.9603 -108.2806 254° West 396 456 38,000  Level Denver Center
Thu 07:33:47 PM 37.9261 -108.4289 254° West 393 452 38,000  Level Denver Center
Thu 07:34:49 PM 37.8964 -108.5586 254° West 398 458 38,000  Level Denver Center
Thu 07:35:51 PM 37.8625 -108.7061 254° West 394 453 38,000  Level Denver Center
Thu 07:36:53 PM 37.8317 -108.8353 253° West 397 457 38,000  Level Denver Center
Thu 07:37:55 PM 37.7972 -108.9811 253° West 390 449 38,000  Level Denver Center
Thu 07:38:57 PM 37.7644 -109.1097 252° West 397 457 38,000  Level Denver Center
Thu 07:39:59 PM 37.7272 -109.2581 252° West 399 459 38,000  Level Denver Center
Thu 07:41:01 PM 37.6964 -109.3856 253° West 397 457 38,000  Level Denver Center
Thu 07:42:03 PM 37.6583 -109.5319 252° West 394 453 38,000  Level Denver Center
Thu 07:43:05 PM 37.6328 -109.6394 253° West 399 459 38,000  Level Denver Center
Thu 07:44:07 PM 37.6008 -109.7633 252° West 393 452 38,000  Level Denver Center
Thu 07:45:21 PM 37.5567 -109.9342 252° West 402 463 38,000  Level Denver Center
Thu 07:46:24 PM 37.5136 -110.1033 252° West 400 460 38,000  Level Denver Center
Thu 07:47:26 PM 37.4806 -110.2347 252° West 402 463 38,000 -242 Level Denver Center
Thu 07:48:28 PM 37.4456 -110.3667 252° West 399 459 37,500 -677 Descending Denver Center
Thu 07:49:30 PM 37.4106 -110.5019 252° West 405 466 36,600 -726 Descending Denver Center
Thu 07:50:32 PM 37.3669 -110.6639 251° West 408 470 36,000 -266 Descending Denver Center
Thu 07:52:08 PM 37.3161 -110.8544 252° West 408 470 35,900 -797 Descending Los Angeles Center
Thu 07:53:10 PM 37.2733 -111.0172 252° West 409 471 33,900 -1,839 Descending Los Angeles Center
Thu 07:54:12 PM 37.2347 -111.1578 251° West 420 483 32,100 -919 Descending Los Angeles Center
Thu 07:55:14 PM 37.1972 -111.3003 252° West 428 493 32,000 -48 Descending Los Angeles Center
Thu 07:56:16 PM 37.1586 -111.4411 251° West 428 493 32,000  Level Los Angeles Center
Thu 07:56:57 PM 37.1453 -111.4986 254° West 432 497 32,000  Level Denver Center
Thu 07:57:59 PM 37.0931 -111.6917 251° West 420 483 32,000 -194 Level Denver Center
Thu 07:59:01 PM 37.0422 -111.8208 244° Southwest 413 475 31,600 -618 Descending Denver Center
Thu 08:00:15 PM 36.9878 -111.9464 242° Southwest 412 474 30,600 -964 Descending Denver Center
Thu 08:01:18 PM 36.9250 -112.0981 243° Southwest 409 471 29,400 -1,075 Descending Denver Center
Thu 08:02:29 PM 36.8997 -112.2658 259° West 406 467 28,200 -812 Descending Los Angeles Center
Thu 08:03:31 PM 36.8753 -112.4017 257° West 401 461 27,600 -774 Descending Los Angeles Center
Thu 08:04:33 PM 36.8514 -112.5367 258° West 399 459 26,600 -1,065 Descending Los Angeles Center
Thu 08:05:35 PM 36.8233 -112.6981 258° West 395 455 25,400 -1,056 Descending Los Angeles Center
Thu 08:06:38 PM 36.7964 -112.8297 256° West 392 451 24,400 -960 Descending Los Angeles Center
Thu 08:07:40 PM 36.7656 -112.9564 253° West 384 442 23,400 -968 Descending Los Angeles Center
Thu 08:08:42 PM 36.7361 -113.0808 254° West 376 433 22,400 -968 Descending Los Angeles Center
Thu 08:09:44 PM 36.7067 -113.2042 253° West 372 428 21,400 -968 Descending Los Angeles Center
Thu 08:10:46 PM 36.6778 -113.3289 254° West 374 430 20,400 -968 Descending Los Angeles Center
Thu 08:11:48 PM 36.6475 -113.4503 253° West 370 426 19,400 -1,065 Descending Los Angeles Center
Thu 08:12:50 PM 36.6133 -113.5933 253° West 360 414 18,200 -1,161 Descending Los Angeles Center
Thu 08:13:52 PM 36.5847 -113.7072 253° West 350 403 17,000 -1,056 Descending Los Angeles Center
Thu 08:14:55 PM 36.5567 -113.8211 253° West 346 398 16,000 -960 Descending Los Angeles Center
Thu 08:15:57 PM 36.5286 -113.9356 253° West 346 398 15,000 -966 Descending Los Angeles Center
Thu 08:16:53 PM 36.5025 -114.0381 252° West 345 397 14,100 -1,023 Descending Los Angeles Center
Thu 08:18:06 PM 36.4589 -114.1900 250° West 334 384 12,800 -1,031 Descending Los Angeles Center
Thu 08:19:01 PM 36.4078 -114.2611 228° Southwest 331 381 11,900 -908 Descending Los Angeles Center
Thu 08:20:05 PM 36.3525 -114.3353 227° Southwest 320 368 11,000 -905 Descending Los Angeles Center
Thu 08:21:07 PM 36.2983 -114.4372 237° Southwest 295 339 10,000 -504 Descending Los Angeles Center
Thu 08:22:04 PM 36.2625 -114.5219 242° Southwest 291 335 10,000 -643 Level Los Angeles Center
Thu 08:22:59 PM 36.2261 -114.6011 240° Southwest 289 333 8,800 -992 Descending Los Angeles Center
Thu 08:24:05 PM 36.1878 -114.6914 242° Southwest 276 318 8,000 -472 Descending Los Angeles Center
Thu 08:25:06 PM 36.1517 -114.7728 241° Southwest 267 307 7,800 -569 Descending Los Angeles Center
Thu 08:26:01 PM 36.1200 -114.8447 241° Southwest 261 300 6,900 -879 Descending Los Angeles Center
Thu 08:27:02 PM 36.0867 -114.9197 241° Southwest 249 287 6,100 -1,034 Descending Los Angeles Center
Thu 08:27:57 PM 36.0736 -114.9881 257° West 211 243 4,900 -1,230 Descending Los Angeles Center
Thu 08:29:04 PM 36.0733 -115.0467 270° West 160 184 3,600 -1,134 Descending Los Angeles Center
Thu 08:30:04 PM 36.0731 -115.0947 270° West 137 158 2,500 -1,100 Descending Los Angeles Center
Thu 08:32:00 PM 36.0667 -115.1500 219° Southwest  Level FlightAware Approximate
Thu 08:39:00 PM 36.0801 -115.1523 219° Southwest  Level Estimated

Login

Don't have an account? Register now (free) for customized features, flight alerts, and more!